createdAt,value
2018-07-04T00:00:20.181Z,1.00
2018-07-04T00:01:20.168Z,1.10
2018-07-04T00:02:20.157Z,1.10
2018-07-04T00:03:20.142Z,1.20
2018-07-04T00:04:20.130Z,1.30
2018-07-04T00:05:20.125Z,1.10
2018-07-04T00:06:20.113Z,1.10
2018-07-04T00:07:20.098Z,1.00
2018-07-04T00:08:20.089Z,1.00
2018-07-04T00:09:20.074Z,1.10
2018-07-04T00:10:20.081Z,1.10
2018-07-04T00:11:20.057Z,1.20
2018-07-04T00:12:20.059Z,1.10
2018-07-04T00:13:20.041Z,1.10
2018-07-04T00:14:20.019Z,1.20
2018-07-04T00:15:20.035Z,1.10
2018-07-04T00:16:19.999Z,1.10
2018-07-04T00:17:19.982Z,1.00
2018-07-04T00:18:19.997Z,1.10
2018-07-04T00:19:19.966Z,1.00
2018-07-04T00:20:19.955Z,1.10
2018-07-04T00:21:19.938Z,0.90
2018-07-04T00:22:19.929Z,1.00
2018-07-04T00:23:19.916Z,1.10
2018-07-04T00:24:19.903Z,1.00
2018-07-04T00:25:19.898Z,0.90
2018-07-04T00:26:19.906Z,1.10
2018-07-04T00:27:19.893Z,1.10
2018-07-04T00:28:19.873Z,1.00
2018-07-04T00:29:19.863Z,1.10
2018-07-04T00:30:19.839Z,1.10
2018-07-04T00:31:19.846Z,1.10
2018-07-04T00:32:19.816Z,1.10
2018-07-04T00:33:19.811Z,1.10
2018-07-04T00:34:19.799Z,1.10
2018-07-04T00:35:19.788Z,0.90
2018-07-04T00:36:19.819Z,1.10
2018-07-04T00:37:19.767Z,1.00
2018-07-04T00:38:19.755Z,1.20
2018-07-04T00:39:19.747Z,1.00
2018-07-04T00:40:19.734Z,1.20
2018-07-04T00:41:19.717Z,1.10
2018-07-04T00:42:19.710Z,1.10
2018-07-04T00:43:19.698Z,1.10
2018-07-04T00:44:19.685Z,1.10
2018-07-04T00:45:19.680Z,1.10
2018-07-04T00:46:19.670Z,0.90
2018-07-04T00:47:19.675Z,1.00
2018-07-04T00:48:19.648Z,1.10
2018-07-04T00:49:19.643Z,1.00
2018-07-04T00:50:19.623Z,1.10
2018-07-04T00:51:19.624Z,1.10
2018-07-04T00:52:19.622Z,1.10
2018-07-04T00:53:19.609Z,0.90
2018-07-04T00:54:19.598Z,1.10
2018-07-04T00:55:19.567Z,1.20
2018-07-04T00:56:19.556Z,1.10
2018-07-04T00:57:19.576Z,1.00
2018-07-04T00:58:19.540Z,1.00
2018-07-04T00:59:19.523Z,1.00
2018-07-04T01:00:19.514Z,1.00
2018-07-04T01:01:19.497Z,1.00
2018-07-04T01:02:19.489Z,1.00
2018-07-04T01:03:19.480Z,1.20
2018-07-04T01:04:19.467Z,1.10
2018-07-04T01:05:19.461Z,1.20
2018-07-04T01:06:19.448Z,1.00
2018-07-04T01:07:19.434Z,0.90
2018-07-04T01:08:19.424Z,1.00
2018-07-04T01:09:19.416Z,1.00
2018-07-04T01:10:19.403Z,1.10
2018-07-04T01:11:19.415Z,1.00
2018-07-04T01:12:19.382Z,0.90
2018-07-04T01:13:19.383Z,1.10
2018-07-04T01:14:19.356Z,1.10
2018-07-04T01:15:19.344Z,1.10
2018-07-04T01:16:19.330Z,1.00
2018-07-04T01:17:19.327Z,1.00
2018-07-04T01:18:19.378Z,1.10
2018-07-04T01:19:19.354Z,1.00
2018-07-04T01:20:19.292Z,1.00
2018-07-04T01:21:19.275Z,1.10
2018-07-04T01:22:19.265Z,1.00
2018-07-04T01:23:19.285Z,1.10
2018-07-04T01:24:19.248Z,1.20
2018-07-04T01:25:19.230Z,1.00
2018-07-04T01:26:19.221Z,1.00
2018-07-04T01:27:19.214Z,1.10
2018-07-04T01:28:19.196Z,1.10
2018-07-04T01:29:19.194Z,1.00
2018-07-04T01:30:19.178Z,1.00
2018-07-04T01:31:19.167Z,1.00
2018-07-04T01:32:19.157Z,1.10
2018-07-04T01:33:19.139Z,1.10
2018-07-04T01:34:19.150Z,1.10
2018-07-04T01:35:19.120Z,1.00
2018-07-04T01:36:19.109Z,1.00
2018-07-04T01:37:19.102Z,0.90
2018-07-04T01:38:19.089Z,0.90
2018-07-04T01:39:19.094Z,1.10
2018-07-04T01:40:19.062Z,1.00
2018-07-04T01:41:19.057Z,1.10
2018-07-04T01:42:19.044Z,1.10
2018-07-04T01:43:19.034Z,1.00
2018-07-04T01:44:19.072Z,1.10
2018-07-04T01:45:19.005Z,1.20
2018-07-04T01:46:18.996Z,1.10
2018-07-04T01:47:18.986Z,1.10
2018-07-04T01:48:18.973Z,1.10
2018-07-04T01:49:18.986Z,1.00
2018-07-04T01:50:18.955Z,1.10
2018-07-04T01:51:18.943Z,1.10
2018-07-04T01:52:18.935Z,1.00
2018-07-04T01:53:18.916Z,1.00
2018-07-04T01:54:18.938Z,1.00
2018-07-04T01:55:18.924Z,1.00
2018-07-04T01:56:18.889Z,0.90
2018-07-04T01:57:18.872Z,1.00
2018-07-04T01:58:18.870Z,1.00
2018-07-04T01:59:18.855Z,0.90
2018-07-04T02:00:18.839Z,1.10
2018-07-04T02:01:18.836Z,1.10
2018-07-04T02:02:18.819Z,1.00
2018-07-04T02:03:18.809Z,1.00
2018-07-04T02:04:18.800Z,1.10
2018-07-04T02:05:18.800Z,1.10
2018-07-04T02:06:18.772Z,1.00
2018-07-04T02:07:18.761Z,1.00
2018-07-04T02:08:18.749Z,1.10
2018-07-04T02:09:18.743Z,1.00
2018-07-04T02:10:18.751Z,1.00
2018-07-04T02:11:18.717Z,1.00
2018-07-04T02:12:18.702Z,1.00
2018-07-04T02:13:18.699Z,1.20
2018-07-04T02:14:18.685Z,1.10
2018-07-04T02:15:18.700Z,1.00
2018-07-04T02:16:18.666Z,1.20
2018-07-04T02:17:18.647Z,1.10
2018-07-04T02:18:18.637Z,0.90
2018-07-04T02:19:18.628Z,1.00
2018-07-04T02:20:18.613Z,1.00
2018-07-04T02:21:18.611Z,1.10
2018-07-04T02:22:18.594Z,1.10
2018-07-04T02:23:18.584Z,1.00
2018-07-04T02:24:18.575Z,1.00
2018-07-04T02:25:18.557Z,0.90
2018-07-04T02:26:18.565Z,1.00
2018-07-04T02:27:18.538Z,1.00
2018-07-04T02:28:18.529Z,1.00
2018-07-04T02:29:18.512Z,1.00
2018-07-04T02:30:18.504Z,1.00
2018-07-04T02:31:18.512Z,1.00
2018-07-04T02:32:18.479Z,1.10
2018-07-04T02:33:18.475Z,1.20
2018-07-04T02:34:18.461Z,1.00
2018-07-04T02:35:18.449Z,1.00
2018-07-04T02:36:18.467Z,1.00
2018-07-04T02:37:18.421Z,1.10
2018-07-04T02:38:18.411Z,1.10
2018-07-04T02:39:18.402Z,1.00
2018-07-04T02:40:18.388Z,1.20
2018-07-04T02:41:18.382Z,1.00
2018-07-04T02:42:18.410Z,1.00
2018-07-04T02:43:18.360Z,1.10
2018-07-04T02:44:18.344Z,1.00
2018-07-04T02:45:18.344Z,1.10
2018-07-04T02:46:18.326Z,1.10
2018-07-04T02:47:18.333Z,1.10
2018-07-04T02:48:18.305Z,1.00
2018-07-04T02:49:18.287Z,1.10
2018-07-04T02:50:18.279Z,1.10
2018-07-04T02:51:18.266Z,1.00
2018-07-04T02:52:18.271Z,1.00
2018-07-04T02:53:18.249Z,1.00
2018-07-04T02:54:18.237Z,1.10
2018-07-04T02:55:18.231Z,1.10
2018-07-04T02:56:18.219Z,1.10
2018-07-04T02:57:18.226Z,1.00
2018-07-04T02:58:18.191Z,1.00
2018-07-04T02:59:18.182Z,1.10
2018-07-04T03:00:18.173Z,1.00
2018-07-04T03:01:18.202Z,1.00
2018-07-04T03:02:18.145Z,1.10
2018-07-04T03:03:18.153Z,1.00
2018-07-04T03:04:18.170Z,0.90
2018-07-04T03:05:18.118Z,1.10
2018-07-04T03:06:18.117Z,1.30
2018-07-04T03:07:18.092Z,1.10
2018-07-04T03:08:18.085Z,1.10
2018-07-04T03:09:18.070Z,0.90
2018-07-04T03:10:18.057Z,1.00
2018-07-04T03:11:18.044Z,1.00
2018-07-04T03:12:18.032Z,1.20
2018-07-04T03:13:18.077Z,1.20
2018-07-04T03:14:18.014Z,1.00
2018-07-04T03:15:18.001Z,1.10
2018-07-04T03:16:17.987Z,1.10
2018-07-04T03:17:17.985Z,1.00
2018-07-04T03:18:17.975Z,1.10
2018-07-04T03:19:17.960Z,1.10
2018-07-04T03:20:17.949Z,1.00
2018-07-04T03:21:17.938Z,1.20
2018-07-04T03:22:17.923Z,1.10
2018-07-04T03:23:17.912Z,1.00
2018-07-04T03:24:17.924Z,1.20
2018-07-04T03:25:17.897Z,0.90
2018-07-04T03:26:17.908Z,1.00
2018-07-04T03:27:17.869Z,1.10
2018-07-04T03:28:17.859Z,1.00
2018-07-04T03:29:17.842Z,1.00
2018-07-04T03:30:17.835Z,1.10
2018-07-04T03:31:17.825Z,1.00
2018-07-04T03:32:17.816Z,1.00
2018-07-04T03:33:17.799Z,1.10
2018-07-04T03:34:17.790Z,1.00
2018-07-04T03:35:17.779Z,1.10
2018-07-04T03:36:17.807Z,1.00
2018-07-04T03:37:17.759Z,1.10
2018-07-04T03:38:17.746Z,0.90
2018-07-04T03:39:17.732Z,1.00
2018-07-04T03:40:17.749Z,1.00
2018-07-04T03:41:17.714Z,1.00
2018-07-04T03:42:17.702Z,1.10
2018-07-04T03:43:17.690Z,1.10
2018-07-04T03:44:17.680Z,1.20
2018-07-04T03:45:17.662Z,1.10
2018-07-04T03:46:17.657Z,1.00
2018-07-04T03:47:17.646Z,1.10
2018-07-04T03:48:17.635Z,1.10
2018-07-04T03:49:17.636Z,1.00
2018-07-04T03:50:17.609Z,1.10
2018-07-04T03:51:17.599Z,1.00
2018-07-04T03:52:17.584Z,1.10
2018-07-04T03:53:17.579Z,1.10
2018-07-04T03:54:17.576Z,1.20
2018-07-04T03:55:17.554Z,1.20
2018-07-04T03:56:17.578Z,1.20
2018-07-04T03:57:17.528Z,1.10
2018-07-04T03:58:17.519Z,1.20
2018-07-04T03:59:17.509Z,1.10
2018-07-04T04:00:17.522Z,1.20
2018-07-04T04:01:17.505Z,1.10
2018-07-04T04:02:17.478Z,1.10
2018-07-04T04:03:17.462Z,1.10
2018-07-04T04:04:17.448Z,1.20
2018-07-04T04:05:17.445Z,1.10
2018-07-04T04:06:17.439Z,1.10
2018-07-04T04:07:17.462Z,1.10
2018-07-04T04:08:17.413Z,1.10
2018-07-04T04:09:17.394Z,1.20
2018-07-04T04:10:17.384Z,1.20
2018-07-04T04:11:17.391Z,1.20
2018-07-04T04:12:17.385Z,1.10
2018-07-04T04:13:17.359Z,1.00
2018-07-04T04:14:17.343Z,1.10
2018-07-04T04:15:17.330Z,1.10
2018-07-04T04:16:17.340Z,1.20
2018-07-04T04:17:17.307Z,1.10
2018-07-04T04:18:17.293Z,1.00
2018-07-04T04:19:17.286Z,1.10
2018-07-04T04:20:17.280Z,0.90
2018-07-04T04:21:17.282Z,1.10
2018-07-04T04:22:17.251Z,1.00
2018-07-04T04:23:17.243Z,1.10
2018-07-04T04:24:17.225Z,1.00
2018-07-04T04:25:17.221Z,1.20
2018-07-04T04:26:17.235Z,1.10
2018-07-04T04:27:17.198Z,1.10
2018-07-04T04:28:17.189Z,1.10
2018-07-04T04:29:17.173Z,1.20
2018-07-04T04:30:17.162Z,1.20
2018-07-04T04:31:17.201Z,1.10
2018-07-04T04:32:17.139Z,1.10
2018-07-04T04:33:17.132Z,1.10
2018-07-04T04:34:17.145Z,1.10
2018-07-04T04:35:17.126Z,1.00
2018-07-04T04:36:17.149Z,1.10
2018-07-04T04:37:17.108Z,1.10
2018-07-04T04:38:17.073Z,1.20
2018-07-04T04:39:17.064Z,1.20
2018-07-04T04:40:17.055Z,1.10
2018-07-04T04:41:17.037Z,1.30
2018-07-04T04:42:17.099Z,1.20
2018-07-04T04:43:17.015Z,1.00
2018-07-04T04:44:17.006Z,1.00
2018-07-04T04:45:16.997Z,1.10
2018-07-04T04:46:16.983Z,1.00
2018-07-04T04:47:16.999Z,1.10
2018-07-04T04:48:16.962Z,1.10
2018-07-04T04:49:16.948Z,1.10
2018-07-04T04:50:16.937Z,1.20
2018-07-04T04:51:16.927Z,1.10
2018-07-04T04:52:16.918Z,1.10
2018-07-04T04:53:16.902Z,1.10
2018-07-04T04:54:16.891Z,1.20
2018-07-04T04:55:16.893Z,1.00
2018-07-04T04:56:16.868Z,1.10
2018-07-04T04:57:16.861Z,1.30
2018-07-04T04:58:16.880Z,1.10
2018-07-04T04:59:16.855Z,1.10
2018-07-04T05:00:16.828Z,1.10
2018-07-04T05:01:16.811Z,1.00
2018-07-04T05:02:16.804Z,1.20
2018-07-04T05:03:16.791Z,1.00
2018-07-04T05:04:16.777Z,1.10
2018-07-04T05:05:16.772Z,1.20
2018-07-04T05:06:16.765Z,1.00
2018-07-04T05:07:16.746Z,1.30
2018-07-04T05:08:16.734Z,1.10
2018-07-04T05:09:16.746Z,1.00
2018-07-04T05:10:16.714Z,1.10
2018-07-04T05:11:16.703Z,1.30
2018-07-04T05:12:16.693Z,1.00
2018-07-04T05:13:16.676Z,1.30
2018-07-04T05:14:16.684Z,1.30
2018-07-04T05:15:16.656Z,1.10
2018-07-04T05:16:16.642Z,1.10
2018-07-04T05:17:16.639Z,1.00
2018-07-04T05:18:16.624Z,1.10
2018-07-04T05:19:16.638Z,1.20
2018-07-04T05:20:16.605Z,1.20
2018-07-04T05:21:16.586Z,1.10
2018-07-04T05:22:16.576Z,1.00
2018-07-04T05:23:16.570Z,1.20
2018-07-04T05:24:16.559Z,1.00
2018-07-04T05:25:16.543Z,0.90
2018-07-04T05:26:16.531Z,1.10
2018-07-04T05:27:16.521Z,1.00
2018-07-04T05:28:16.517Z,1.10
2018-07-04T05:29:16.502Z,1.00
2018-07-04T05:30:16.514Z,1.00
2018-07-04T05:31:16.480Z,1.10
2018-07-04T05:32:16.469Z,1.10
2018-07-04T05:33:16.451Z,1.10
2018-07-04T05:34:16.445Z,1.10
2018-07-04T05:35:16.449Z,1.10
2018-07-04T05:36:16.419Z,1.10
2018-07-04T05:37:16.413Z,1.20
2018-07-04T05:38:16.399Z,1.20
2018-07-04T05:39:16.386Z,1.10
2018-07-04T05:40:16.373Z,1.10
2018-07-04T05:41:16.370Z,1.20
2018-07-04T05:42:16.355Z,1.10
2018-07-04T05:43:16.343Z,1.30
2018-07-04T05:44:16.364Z,1.10
2018-07-04T05:45:16.317Z,1.10
2018-07-04T05:46:16.325Z,1.20
2018-07-04T05:47:16.297Z,1.20
2018-07-04T05:48:16.284Z,1.00
2018-07-04T05:49:16.309Z,1.10
2018-07-04T05:50:16.265Z,1.00
2018-07-04T05:51:16.273Z,1.10
2018-07-04T05:52:16.248Z,1.10
2018-07-04T05:53:16.259Z,1.10
2018-07-04T05:54:16.216Z,1.10
2018-07-04T05:55:16.380Z,1.10
2018-07-04T05:56:16.233Z,1.00
2018-07-04T05:57:16.184Z,1.20
2018-07-04T05:58:16.172Z,1.10
2018-07-04T05:59:16.160Z,1.20
2018-07-04T06:00:16.151Z,1.00
2018-07-04T06:01:16.161Z,1.30
2018-07-04T06:02:16.130Z,1.10
2018-07-04T06:03:16.118Z,1.10
2018-07-04T06:04:16.110Z,1.20
2018-07-04T06:05:16.091Z,1.20
2018-07-04T06:06:16.113Z,1.20
2018-07-04T06:07:16.072Z,1.30
2018-07-04T06:08:16.058Z,1.20
2018-07-04T06:09:16.054Z,1.00
2018-07-04T06:10:16.042Z,1.10
2018-07-04T06:11:16.054Z,1.00
2018-07-04T06:12:16.014Z,1.30
2018-07-04T06:13:16.007Z,1.10
2018-07-04T06:14:15.994Z,1.00
2018-07-04T06:15:15.983Z,1.00
2018-07-04T06:16:15.994Z,1.10
2018-07-04T06:17:15.957Z,1.10
2018-07-04T06:18:15.952Z,1.10
2018-07-04T06:19:15.935Z,1.10
2018-07-04T06:20:15.922Z,1.20
2018-07-04T06:21:15.922Z,1.20
2018-07-04T06:22:15.906Z,1.30
2018-07-04T06:23:15.893Z,1.20
2018-07-04T06:24:15.884Z,1.20
2018-07-04T06:25:15.887Z,1.10
2018-07-04T06:26:15.858Z,1.10
2018-07-04T06:27:15.878Z,1.10
2018-07-04T06:28:15.839Z,1.10
2018-07-04T06:29:15.821Z,1.30
2018-07-04T06:30:15.812Z,1.10
2018-07-04T06:31:15.801Z,1.10
2018-07-04T06:32:15.789Z,1.10
2018-07-04T06:33:15.785Z,1.20
2018-07-04T06:34:15.770Z,1.30
2018-07-04T06:35:15.758Z,1.20
2018-07-04T06:36:15.749Z,1.40
2018-07-04T06:37:15.732Z,1.10
2018-07-04T06:38:15.725Z,1.10
2018-07-04T06:39:15.904Z,1.30
2018-07-04T06:40:15.698Z,1.20
2018-07-04T06:41:15.701Z,1.30
2018-07-04T06:42:15.679Z,1.30
2018-07-04T06:43:15.685Z,1.30
2018-07-04T06:44:15.654Z,1.20
2018-07-04T06:45:15.651Z,1.30
2018-07-04T06:46:15.634Z,1.50
2018-07-04T06:47:15.626Z,1.30
2018-07-04T06:48:15.631Z,1.40
2018-07-04T06:49:15.607Z,1.20
2018-07-04T06:50:15.598Z,1.20
2018-07-04T06:51:15.577Z,1.40
2018-07-04T06:52:15.564Z,1.20
2018-07-04T06:53:15.578Z,1.30
2018-07-04T06:54:15.640Z,1.30
2018-07-04T06:55:15.534Z,1.20
2018-07-04T06:56:15.524Z,1.30
2018-07-04T06:57:15.507Z,1.40
2018-07-04T06:58:15.518Z,1.30
2018-07-04T06:59:15.492Z,1.30
2018-07-04T07:00:15.480Z,1.20
2018-07-04T07:01:15.462Z,1.20
2018-07-04T07:02:15.477Z,1.20
2018-07-04T07:03:15.473Z,1.30
2018-07-04T07:04:15.428Z,1.40
2018-07-04T07:05:15.425Z,1.30
2018-07-04T07:06:15.414Z,1.30
2018-07-04T07:07:15.398Z,1.20
2018-07-04T07:08:15.446Z,1.20
2018-07-04T07:09:15.374Z,1.30
2018-07-04T07:10:15.365Z,1.20
2018-07-04T07:11:15.351Z,1.20
2018-07-04T07:12:15.337Z,1.10
2018-07-04T07:13:15.361Z,1.30
2018-07-04T07:14:15.320Z,1.00
2018-07-04T07:15:15.308Z,1.20
2018-07-04T07:16:15.295Z,1.30
2018-07-04T07:17:15.300Z,1.10
2018-07-04T07:18:15.278Z,1.30
2018-07-04T07:19:15.283Z,1.20
2018-07-04T07:20:15.269Z,1.00
2018-07-04T07:21:15.255Z,1.20
2018-07-04T07:22:15.229Z,1.10
2018-07-04T07:23:15.235Z,1.30
2018-07-04T07:24:15.204Z,1.20
2018-07-04T07:25:15.200Z,1.10
2018-07-04T07:26:15.187Z,1.20
2018-07-04T07:27:15.175Z,1.20
2018-07-04T07:28:15.184Z,1.10
2018-07-04T07:29:15.148Z,1.40
2018-07-04T07:30:15.138Z,1.20
2018-07-04T07:31:15.131Z,1.20
2018-07-04T07:32:15.124Z,1.30
2018-07-04T07:33:15.123Z,1.10
2018-07-04T07:34:15.212Z,1.20
2018-07-04T07:35:15.082Z,1.30
2018-07-04T07:36:15.069Z,1.10
2018-07-04T07:37:15.068Z,1.20
2018-07-04T07:38:15.088Z,1.20
2018-07-04T07:39:15.043Z,1.20
2018-07-04T07:40:15.033Z,1.30
2018-07-04T07:41:15.068Z,1.10
2018-07-04T07:42:15.021Z,1.20
2018-07-04T07:43:14.994Z,1.30
2018-07-04T07:44:14.982Z,1.20
2018-07-04T07:45:14.984Z,1.10
2018-07-04T07:46:14.963Z,1.30
2018-07-04T07:47:14.949Z,1.20
2018-07-04T07:48:14.935Z,1.20
2018-07-04T07:49:14.985Z,1.20
2018-07-04T07:50:14.918Z,1.10
2018-07-04T07:51:14.909Z,1.20
2018-07-04T07:52:14.899Z,1.20
2018-07-04T07:53:14.884Z,1.10
2018-07-04T07:54:15.100Z,1.30
2018-07-04T07:55:14.856Z,1.30
2018-07-04T07:56:14.848Z,1.30
2018-07-04T07:57:14.838Z,1.20
2018-07-04T07:58:14.831Z,1.20
2018-07-04T07:59:14.846Z,1.30
2018-07-04T08:00:14.822Z,1.20
2018-07-04T08:01:14.831Z,1.40
2018-07-04T08:02:14.781Z,1.40
2018-07-04T08:03:14.773Z,1.10
2018-07-04T08:04:14.801Z,1.20
2018-07-04T08:05:14.774Z,1.20
2018-07-04T08:06:14.736Z,1.20
2018-07-04T08:07:14.751Z,1.40
2018-07-04T08:08:14.714Z,1.20
2018-07-04T08:09:14.751Z,1.30
2018-07-04T08:10:14.778Z,1.20
2018-07-04T08:11:14.702Z,1.40
2018-07-04T08:12:14.680Z,1.20
2018-07-04T08:13:14.696Z,1.10
2018-07-04T08:14:14.645Z,1.20
2018-07-04T08:15:14.635Z,1.30
2018-07-04T08:16:14.623Z,1.30
2018-07-04T08:17:14.613Z,1.40
2018-07-04T08:18:14.605Z,1.30
2018-07-04T08:19:14.586Z,1.30
2018-07-04T08:20:14.596Z,1.10
2018-07-04T08:21:14.569Z,1.40
2018-07-04T08:22:14.560Z,1.20
2018-07-04T08:23:14.550Z,1.30
2018-07-04T08:24:14.561Z,1.20
2018-07-04T08:25:14.540Z,1.20
2018-07-04T08:26:14.525Z,1.30
2018-07-04T08:27:14.498Z,1.20
2018-07-04T08:28:14.532Z,1.20
2018-07-04T08:29:14.583Z,1.20
2018-07-04T08:30:15.211Z,1.20
2018-07-04T08:31:14.461Z,1.40
2018-07-04T08:32:14.447Z,1.20
2018-07-04T08:33:14.434Z,1.30
2018-07-04T08:34:14.421Z,1.30
2018-07-04T08:35:14.441Z,1.30
2018-07-04T08:36:14.403Z,1.30
2018-07-04T08:37:14.389Z,1.50
2018-07-04T08:38:14.377Z,1.10
2018-07-04T08:39:14.369Z,1.40
2018-07-04T08:40:14.356Z,1.30
2018-07-04T08:41:14.350Z,1.30
2018-07-04T08:42:14.337Z,1.10
2018-07-04T08:43:14.339Z,1.40
2018-07-04T08:44:14.313Z,1.30
2018-07-04T08:45:14.299Z,1.40
2018-07-04T08:46:14.287Z,1.30
2018-07-04T08:47:14.276Z,1.40
2018-07-04T08:48:14.265Z,1.20
2018-07-04T08:49:14.257Z,1.20
2018-07-04T08:50:14.247Z,1.40
2018-07-04T08:51:14.232Z,1.20
2018-07-04T08:52:14.226Z,1.30
2018-07-04T08:53:14.211Z,1.30
2018-07-04T08:54:14.203Z,1.50
2018-07-04T08:55:14.193Z,1.40
2018-07-04T08:56:14.196Z,1.30
2018-07-04T08:57:14.185Z,1.20
2018-07-04T08:58:14.163Z,1.40
2018-07-04T08:59:14.139Z,1.50
2018-07-04T09:00:14.132Z,1.30
2018-07-04T09:01:14.139Z,1.20
2018-07-04T09:02:14.112Z,1.40
2018-07-04T09:03:14.105Z,1.30
2018-07-04T09:04:14.088Z,1.30
2018-07-04T09:05:14.075Z,1.40
2018-07-04T09:06:14.088Z,1.40
2018-07-04T09:07:14.057Z,1.50
2018-07-04T09:08:14.045Z,1.30
2018-07-04T09:09:14.030Z,1.30
2018-07-04T09:10:14.017Z,1.20
2018-07-04T09:11:14.005Z,1.40
2018-07-04T09:12:13.998Z,1.40
2018-07-04T09:13:14.046Z,1.30
2018-07-04T09:14:13.979Z,1.50
2018-07-04T09:15:13.967Z,1.50
2018-07-04T09:16:13.980Z,1.50
2018-07-04T09:17:14.004Z,1.30
2018-07-04T09:18:13.931Z,1.20
2018-07-04T09:19:13.915Z,1.30
2018-07-04T09:20:13.905Z,1.50
2018-07-04T09:21:13.898Z,1.50
2018-07-04T09:22:13.891Z,1.60
2018-07-04T09:23:13.871Z,1.40
2018-07-04T09:24:13.862Z,1.40
2018-07-04T09:25:13.852Z,1.50
2018-07-04T09:26:13.844Z,1.40
2018-07-04T09:27:13.851Z,1.40
2018-07-04T09:28:13.819Z,1.70
2018-07-04T09:29:13.805Z,1.40
2018-07-04T09:30:13.794Z,1.40
2018-07-04T09:31:13.781Z,1.50
2018-07-04T09:32:13.800Z,1.60
2018-07-04T09:33:13.764Z,1.50
2018-07-04T09:34:13.759Z,1.40
2018-07-04T09:35:13.743Z,1.40
2018-07-04T09:36:13.743Z,1.60
2018-07-04T09:37:13.717Z,1.30
2018-07-04T09:38:13.705Z,1.50
2018-07-04T09:39:13.699Z,1.40
2018-07-04T09:40:13.690Z,1.40
2018-07-04T09:41:13.671Z,1.70
2018-07-04T09:42:13.659Z,1.30
2018-07-04T09:43:13.675Z,1.50
2018-07-04T09:44:13.638Z,1.40
2018-07-04T09:45:13.630Z,1.40
2018-07-04T09:46:13.621Z,1.70
2018-07-04T09:47:13.612Z,1.50
2018-07-04T09:48:13.628Z,1.60
2018-07-04T09:49:13.583Z,1.40
2018-07-04T09:50:13.570Z,1.60
2018-07-04T09:51:13.559Z,1.60
2018-07-04T09:52:13.557Z,1.50
2018-07-04T09:53:13.542Z,1.50
2018-07-04T09:54:13.537Z,1.50
2018-07-04T09:55:13.515Z,1.50
2018-07-04T09:56:13.506Z,1.60
2018-07-04T09:57:13.496Z,1.50
2018-07-04T09:58:13.488Z,1.60
2018-07-04T09:59:13.505Z,1.40
2018-07-04T10:00:13.463Z,1.70
2018-07-04T10:01:13.449Z,1.60
2018-07-04T10:02:13.435Z,1.70
2018-07-04T10:03:13.446Z,1.50
2018-07-04T10:04:13.433Z,1.40
2018-07-04T10:05:13.411Z,1.40
2018-07-04T10:06:13.397Z,1.40
2018-07-04T10:07:13.390Z,1.50
2018-07-04T10:08:13.375Z,1.40
2018-07-04T10:09:13.379Z,1.50
2018-07-04T10:10:13.347Z,1.50
2018-07-04T10:11:13.341Z,1.60
2018-07-04T10:12:13.330Z,1.50
2018-07-04T10:13:13.318Z,1.60
2018-07-04T10:14:13.328Z,1.60
2018-07-04T10:15:13.293Z,1.40
2018-07-04T10:16:13.283Z,1.70
2018-07-04T10:17:13.273Z,1.40
2018-07-04T10:18:13.276Z,1.70
2018-07-04T10:19:13.286Z,1.40
2018-07-04T10:20:13.243Z,1.70
2018-07-04T10:21:13.227Z,1.50
2018-07-04T10:22:13.214Z,1.40
2018-07-04T10:23:13.203Z,1.40
2018-07-04T10:24:13.194Z,1.60
2018-07-04T10:25:13.191Z,1.40
2018-07-04T10:26:13.177Z,1.50
2018-07-04T10:27:13.159Z,1.60
2018-07-04T10:28:13.149Z,1.30
2018-07-04T10:29:13.142Z,1.50
2018-07-04T10:30:13.149Z,1.50
2018-07-04T10:31:13.121Z,1.70
2018-07-04T10:32:13.107Z,1.60
2018-07-04T10:33:13.094Z,1.50
2018-07-04T10:34:13.126Z,1.50
2018-07-04T10:35:13.096Z,1.30
2018-07-04T10:36:13.060Z,1.50
2018-07-04T10:37:13.069Z,1.60
2018-07-04T10:38:13.036Z,1.50
2018-07-04T10:39:13.031Z,1.60
2018-07-04T10:40:13.017Z,1.60
2018-07-04T10:41:13.009Z,1.50
2018-07-04T10:42:12.991Z,1.60
2018-07-04T10:43:12.986Z,1.50
2018-07-04T10:44:12.978Z,1.50
2018-07-04T10:45:12.961Z,1.50
2018-07-04T10:46:12.947Z,1.40
2018-07-04T10:47:12.935Z,1.40
2018-07-04T10:48:12.926Z,1.50
2018-07-04T10:49:12.917Z,1.40
2018-07-04T10:50:12.907Z,1.80
2018-07-04T10:51:12.902Z,1.70
2018-07-04T10:52:12.909Z,1.80
2018-07-04T10:53:12.869Z,1.70
2018-07-04T10:54:12.857Z,1.80
2018-07-04T10:55:12.845Z,1.70
2018-07-04T10:56:12.865Z,1.60
2018-07-04T10:57:12.827Z,1.80
2018-07-04T10:58:12.817Z,1.80
2018-07-04T10:59:12.801Z,1.50
2018-07-04T11:00:12.818Z,1.90
2018-07-04T11:01:12.801Z,1.50
2018-07-04T11:02:12.772Z,1.80
2018-07-04T11:03:12.762Z,1.70
2018-07-04T11:04:12.749Z,1.70
2018-07-04T11:05:12.735Z,1.70
2018-07-04T11:06:12.747Z,1.60
2018-07-04T11:07:12.710Z,1.80
2018-07-04T11:08:12.701Z,1.90
2018-07-04T11:09:12.694Z,1.70
2018-07-04T11:10:12.684Z,1.70
2018-07-04T11:11:12.674Z,1.80
2018-07-04T11:12:12.662Z,1.90
2018-07-04T11:13:12.646Z,1.80
2018-07-04T11:14:12.631Z,1.80
2018-07-04T11:15:12.729Z,1.80
2018-07-04T11:16:12.616Z,1.90
2018-07-04T11:17:12.722Z,1.80
2018-07-04T11:18:12.587Z,1.80
2018-07-04T11:19:12.577Z,1.80
2018-07-04T11:20:12.631Z,1.60
2018-07-04T11:21:12.561Z,1.80
2018-07-04T11:22:12.579Z,1.80
2018-07-04T11:23:12.540Z,1.90
2018-07-04T11:24:12.573Z,1.90
2018-07-04T11:25:12.514Z,2.00
2018-07-04T11:26:12.509Z,1.80
2018-07-04T11:27:12.516Z,1.70
2018-07-04T11:28:12.481Z,1.80
2018-07-04T11:29:12.475Z,1.80
2018-07-04T11:30:12.466Z,1.80
2018-07-04T11:31:12.447Z,1.70
2018-07-04T11:32:12.439Z,1.80
2018-07-04T11:33:12.432Z,1.90
2018-07-04T11:34:12.421Z,1.90
2018-07-04T11:35:12.411Z,1.80
2018-07-04T11:36:12.397Z,1.60
2018-07-04T11:37:12.384Z,1.90
2018-07-04T11:38:12.396Z,1.80
2018-07-04T11:39:12.360Z,1.80
2018-07-04T11:40:12.353Z,1.90
2018-07-04T11:41:12.344Z,1.90
2018-07-04T11:42:12.336Z,2.10
2018-07-04T11:43:12.325Z,2.00
2018-07-04T11:44:12.316Z,1.70
2018-07-04T11:45:12.322Z,1.80
2018-07-04T11:46:12.287Z,1.70
2018-07-04T11:47:12.283Z,1.90
2018-07-04T11:48:12.292Z,2.00
2018-07-04T11:49:12.289Z,1.60
2018-07-04T11:50:12.246Z,1.90
2018-07-04T11:51:12.234Z,1.90
2018-07-04T11:52:12.225Z,2.00
2018-07-04T11:53:12.268Z,2.00
2018-07-04T11:54:12.239Z,1.80
2018-07-04T11:55:12.196Z,1.80
2018-07-04T11:56:12.192Z,2.00
2018-07-04T11:57:12.172Z,1.90
2018-07-04T11:58:12.157Z,1.70
2018-07-04T11:59:12.150Z,1.80
2018-07-04T12:00:12.141Z,1.90
2018-07-04T12:01:12.129Z,1.90
2018-07-04T12:02:12.121Z,1.70
2018-07-04T12:03:12.103Z,1.90
2018-07-04T12:04:12.096Z,1.70
2018-07-04T12:05:12.113Z,1.90
2018-07-04T12:06:12.077Z,1.80
2018-07-04T12:07:12.066Z,1.70
2018-07-04T12:08:12.053Z,1.80
2018-07-04T12:09:12.040Z,1.90
2018-07-04T12:10:12.026Z,2.10
2018-07-04T12:11:12.022Z,1.70
2018-07-04T12:12:12.005Z,1.70
2018-07-04T12:13:12.001Z,1.80
2018-07-04T12:14:11.987Z,1.80
2018-07-04T12:15:11.977Z,1.70
2018-07-04T12:16:11.997Z,1.70
2018-07-04T12:17:11.952Z,1.70
2018-07-04T12:18:11.942Z,2.10
2018-07-04T12:19:11.943Z,2.00
2018-07-04T12:20:11.927Z,1.80
2018-07-04T12:21:11.927Z,1.90
2018-07-04T12:22:11.899Z,1.60
2018-07-04T12:23:11.887Z,1.80
2018-07-04T12:24:11.875Z,1.80
2018-07-04T12:25:11.870Z,1.70
2018-07-04T12:26:11.888Z,1.80
2018-07-04T12:27:11.848Z,1.80
2018-07-04T12:28:11.838Z,1.90
2018-07-04T12:29:11.822Z,1.80
2018-07-04T12:30:11.812Z,2.10
2018-07-04T12:31:11.802Z,1.70
2018-07-04T12:32:11.793Z,1.90
2018-07-04T12:33:11.787Z,1.80
2018-07-04T12:34:11.774Z,2.10
2018-07-04T12:35:11.759Z,1.70
2018-07-04T12:36:11.745Z,1.80
2018-07-04T12:37:11.761Z,1.80
2018-07-04T12:38:11.734Z,1.80
2018-07-04T12:39:11.717Z,1.80
2018-07-04T12:40:11.710Z,1.80
2018-07-04T12:41:11.691Z,1.70
2018-07-04T12:42:11.708Z,1.80
2018-07-04T12:43:11.672Z,1.90
2018-07-04T12:44:11.660Z,1.70
2018-07-04T12:45:11.656Z,1.70
2018-07-04T12:46:11.681Z,1.60
2018-07-04T12:47:11.637Z,1.70
2018-07-04T12:48:11.625Z,1.80
2018-07-04T12:49:11.605Z,1.60
2018-07-04T12:50:11.598Z,1.80
2018-07-04T12:51:11.660Z,1.80
2018-07-04T12:52:11.580Z,1.80
2018-07-04T12:53:11.581Z,1.90
2018-07-04T12:54:11.672Z,1.90
2018-07-04T12:55:11.543Z,1.60
2018-07-04T12:56:11.530Z,1.90
2018-07-04T12:57:11.525Z,1.60
2018-07-04T12:58:11.538Z,1.70
2018-07-04T12:59:11.501Z,1.80
2018-07-04T13:00:11.492Z,2.00
2018-07-04T13:01:11.476Z,1.80
2018-07-04T13:02:11.465Z,1.70
2018-07-04T13:03:11.456Z,1.80
2018-07-04T13:04:11.444Z,1.60
2018-07-04T13:05:11.438Z,1.80
2018-07-04T13:06:11.426Z,1.80
2018-07-04T13:07:11.414Z,1.80
2018-07-04T13:08:11.400Z,1.90
2018-07-04T13:09:11.429Z,1.70
2018-07-04T13:10:11.382Z,1.50
2018-07-04T13:11:11.372Z,1.90
2018-07-04T13:12:11.361Z,1.90
2018-07-04T13:13:11.347Z,1.80
2018-07-04T13:14:11.354Z,1.80
2018-07-04T13:15:11.326Z,1.90
2018-07-04T13:16:11.355Z,1.90
2018-07-04T13:17:11.308Z,1.80
2018-07-04T13:18:11.296Z,1.80